Terminal Aerodrome Forecast
Issued by NWS Sioux Falls, SD

Home | Current Version | Previous Version | Graphics & Text | Print | Product List | Glossary Off
Versions: 1 2 3 4 5 6 7 8 9 10 11 12 13 14

000
FTUS43 KFSD 042320
TAFFSD
TAF
KFSD 042320Z 0500/0524 18012G18KT P6SM SCT120 SCT250
     FM050300 15011KT P6SM SCT100
     FM051500 18012KT P6SM BKN150
     FM051900 18014G22KT P6SM SCT060 BKN150=

USA.gov is the U.S. government's official web portal to all federal, state and local government web resources and services.